エディンバラ の空港の天気 - METARとTAF

エディンバラ空港 ( EGPH / EDI ) - イギリス エディンバラ
飛行場実況気象(Metar)
観測時間04/10 07:20 BST (04/10 06:20 UTC)
風向・風速東 2m/s
視程6000m
天気現象
少しの雲 雲底高度 150m
気温6℃
湿度100%
気圧1025hPa
METAREGPH 100620Z 09004KT 6000 FEW005 06/06 Q1025
過去の天気等 Google飛行場航空写真 Wunderground天気予報

過去48時間のMETAR

飛行場予報(TAF)
発表時間: 4/10 05:54 BST (4/10 04:54 UTC)
予報対象時間: 10日7時 BST ~ 11日7時 BST
風向・風速東北東 5m/s
視程10km以上
全天の4割程度の雲 雲底高度 910m
10日7時 BST から 確率 40% で
視程4000m
天気現象もや
10日10時 BST ~ 10日20時 BST に 確率 30% で一時的に
視程5000m
天気現象しゅう雨
10日20時 BST ~ 10日23時 BST に徐々に
風向・風速西南西 5m/s
10日20時 BST ~ 11日7時 BST に一時的に
視程6000m
11日1時 BST ~ 11日7時 BST に 確率 40% で一時的に
視程4000m
天気現象雨霧雨 もや
全天の8割程度の雲 雲底高度 240m
TAF EGPH 100454Z 1006/1106 06009KT 9999 SCT030
PROB40 1006/1009 4000 BR
PROB30 TEMPO 1009/1019 5000 SHRA
BECMG 1019/1022 24010KT
TEMPO 1019/1106 6000
PROB40 TEMPO 1100/1106 4000 RADZ BR BKN008